createdAt,value
2022-11-26T00:02:31.481Z,98823.50
2022-11-26T00:04:59.520Z,98838.00
2022-11-26T00:07:29.828Z,98855.63
2022-11-26T00:09:58.685Z,98856.56
2022-11-26T14:14:26.181Z,99143.56
2022-11-26T14:17:33.902Z,99147.41
2022-11-26T14:20:03.100Z,99156.34
2022-11-26T14:22:37.332Z,99149.22
2022-11-26T14:25:07.073Z,99156.63
2022-11-26T14:27:40.999Z,99161.19
2022-11-26T14:30:07.547Z,99163.00
2022-11-26T14:32:46.160Z,99166.69
2022-11-26T14:35:33.947Z,99167.84
2022-11-26T14:38:02.102Z,99177.25
2022-11-26T14:40:38.759Z,99169.09
2022-11-26T14:43:11.354Z,99173.25
2022-11-26T14:45:38.318Z,99170.63
2022-11-26T14:48:05.659Z,99175.09
2022-11-26T14:50:36.129Z,99180.38
2022-11-26T14:53:06.258Z,99186.75
2022-11-26T14:55:34.858Z,99187.31
2022-11-26T14:58:09.869Z,99192.72
2022-11-26T15:00:36.880Z,99188.19
2022-11-26T15:03:04.181Z,99195.00
2022-11-26T15:05:33.450Z,99193.69
2022-11-26T15:08:15.036Z,99191.44
2022-11-26T15:10:49.873Z,99207.66
2022-11-26T15:13:32.793Z,99200.47
2022-11-26T15:16:02.071Z,99205.47
2022-11-26T15:18:32.701Z,99204.97
2022-11-26T15:21:02.235Z,99210.81
2022-11-26T15:23:32.933Z,99219.31
2022-11-26T15:26:00.668Z,99216.66
2022-11-26T15:28:28.205Z,99223.19
2022-11-26T15:31:03.606Z,99225.00
2022-11-26T15:33:34.343Z,99222.47
2022-11-26T15:36:02.509Z,99225.88
2022-11-26T15:38:31.357Z,99232.94
2022-11-26T15:40:59.245Z,99241.00
2022-11-26T15:43:25.790Z,99233.22
2022-11-26T15:45:55.922Z,99237.91
2022-11-26T15:48:50.539Z,99237.19
2022-11-26T15:51:23.082Z,99232.41
2022-11-26T15:53:50.548Z,99227.34
2022-11-26T15:56:24.320Z,99224.91
2022-11-26T15:58:59.522Z,99227.22
2022-11-26T16:01:32.595Z,99230.47
2022-11-26T16:04:06.348Z,99229.06
2022-11-26T16:06:38.173Z,99233.16
2022-11-26T16:09:04.687Z,99227.69
2022-11-26T16:11:34.438Z,99227.09
2022-11-26T16:14:22.697Z,99230.91
2022-11-26T16:16:51.412Z,99239.94
2022-11-26T16:19:18.505Z,99243.66
2022-11-26T16:21:50.653Z,99240.41
2022-11-26T16:24:27.196Z,99250.00
2022-11-26T16:26:57.524Z,99252.00
2022-11-26T16:29:28.340Z,99246.63
2022-11-26T16:31:55.706Z,99253.25
2022-11-26T16:34:22.888Z,99255.38
2022-11-26T16:36:49.596Z,99266.84
2022-11-26T16:39:17.526Z,99274.59
2022-11-26T16:41:44.094Z,99280.25
2022-11-26T16:44:10.695Z,99269.53
2022-11-26T16:46:38.380Z,99279.41
2022-11-26T16:49:05.286Z,99272.03
2022-11-26T16:51:31.929Z,99280.22
2022-11-26T16:53:58.504Z,99270.19
2022-11-26T16:56:36.177Z,99286.13
2022-11-26T16:59:04.971Z,99284.53
2022-11-26T17:01:31.848Z,99282.94
2022-11-26T17:03:58.507Z,99290.53
2022-11-26T17:06:33.916Z,99289.66
2022-11-26T17:09:01.275Z,99287.06
2022-11-26T17:11:27.994Z,99289.13
2022-11-26T17:13:55.751Z,99281.72
2022-11-26T17:16:23.573Z,99288.50
2022-11-26T17:18:50.661Z,99297.19
2022-11-26T17:21:17.491Z,99297.31
2022-11-26T17:23:44.161Z,99298.56
2022-11-26T17:26:20.488Z,99293.47
2022-11-26T17:28:47.697Z,99290.06
2022-11-26T17:31:14.688Z,99295.22
2022-11-26T17:33:41.361Z,99285.69
2022-11-26T17:36:20.979Z,99290.41
2022-11-26T17:38:48.449Z,99289.09
2022-11-26T17:41:16.099Z,99296.16
2022-11-26T17:43:43.402Z,99295.28
2022-11-26T17:46:18.250Z,99288.19
2022-11-26T17:48:45.815Z,99295.84
2022-11-26T17:51:14.424Z,99304.91
2022-11-26T17:53:42.335Z,99295.59
2022-11-26T17:56:21.693Z,99300.22
2022-11-26T17:58:48.812Z,99304.72
2022-11-26T18:01:16.236Z,99298.53
2022-11-26T18:03:43.804Z,99306.94
2022-11-26T18:06:37.486Z,99316.38
2022-11-26T18:09:04.416Z,99314.06
2022-11-26T18:11:49.941Z,99306.16
2022-11-26T18:14:17.400Z,99314.31
2022-11-26T18:16:44.478Z,99310.31
2022-11-26T18:19:13.787Z,99327.50
2022-11-26T18:21:40.593Z,99319.09
2022-11-26T18:24:08.241Z,99318.13
2022-11-26T18:26:35.422Z,99321.41
2022-11-26T18:29:02.815Z,99321.06
2022-11-26T18:31:32.443Z,99331.03
2022-11-26T18:34:02.121Z,99333.72
2022-11-26T18:36:29.458Z,99338.09
2022-11-26T18:38:56.366Z,99342.63
2022-11-26T18:41:23.395Z,99347.13
2022-11-26T18:43:49.972Z,99348.31
2022-11-26T18:46:17.907Z,99352.94
2022-11-26T18:48:46.804Z,99355.72
2022-11-26T18:51:15.199Z,99357.09
2022-11-26T18:53:42.148Z,99366.94
2022-11-26T18:56:14.411Z,99376.16
2022-11-26T18:58:41.551Z,99376.06
2022-11-26T19:01:18.975Z,99380.31
2022-11-26T19:03:45.628Z,99372.91
2022-11-26T19:06:17.877Z,99377.41
2022-11-26T19:08:45.104Z,99382.63
2022-11-26T19:11:17.827Z,99387.84
2022-11-26T19:13:44.405Z,99382.25
2022-11-26T19:16:16.692Z,99388.94
2022-11-26T19:18:44.675Z,99383.25
2022-11-26T19:21:17.518Z,99396.59
2022-11-26T19:23:44.235Z,99397.06
2022-11-26T19:26:11.274Z,99392.38
2022-11-26T19:28:37.903Z,99393.69
2022-11-26T19:31:07.645Z,99386.38
2022-11-26T19:33:34.509Z,99386.63
2022-11-26T19:36:13.105Z,99394.78
2022-11-26T19:38:39.840Z,99394.28
2022-11-26T19:41:07.146Z,99399.88
2022-11-26T19:43:35.972Z,99389.66
2022-11-26T19:46:04.073Z,99396.72
2022-11-26T19:48:30.869Z,99405.22
2022-11-26T19:50:57.511Z,99404.72
2022-11-26T19:53:24.506Z,99414.72
2022-11-26T19:55:58.637Z,99405.94
2022-11-26T19:58:25.548Z,99403.88
2022-11-26T20:00:52.395Z,99408.50
2022-11-26T20:03:19.484Z,99405.44
2022-11-26T20:05:46.647Z,99409.84
2022-11-26T20:08:13.776Z,99409.72
2022-11-26T20:10:40.503Z,99414.56
2022-11-26T20:13:08.043Z,99415.06
2022-11-26T20:15:40.680Z,99415.47
2022-11-26T20:18:07.948Z,99411.06
2022-11-26T20:20:35.338Z,99412.53
2022-11-26T20:23:02.241Z,99425.53
2022-11-26T20:25:33.075Z,99416.06
2022-11-26T20:27:59.730Z,99416.66
2022-11-26T20:30:26.814Z,99420.28
2022-11-26T20:32:53.420Z,99423.22
2022-11-26T20:35:20.026Z,99423.94
2022-11-26T20:37:46.630Z,99430.00
2022-11-26T20:40:13.400Z,99435.63
2022-11-26T20:42:40.919Z,99433.31
2022-11-26T20:45:07.700Z,99426.63
2022-11-26T20:47:34.342Z,99439.16
2022-11-26T20:50:00.944Z,99439.75
2022-11-26T20:52:27.542Z,99438.53
2022-11-26T20:54:54.217Z,99438.03
2022-11-26T20:57:21.535Z,99435.13
2022-11-26T20:59:48.154Z,99435.84
2022-11-26T21:02:15.607Z,99442.66
2022-11-26T21:04:42.314Z,99435.38
2022-11-26T21:07:08.890Z,99440.75
2022-11-26T21:09:35.459Z,99430.03
2022-11-26T21:12:02.083Z,99446.19
2022-11-26T21:14:29.598Z,99445.81
2022-11-26T21:16:56.265Z,99447.03
2022-11-26T21:19:23.006Z,99453.72
2022-11-26T21:21:49.592Z,99446.56
2022-11-26T21:24:17.075Z,99451.13
2022-11-26T21:26:43.681Z,99451.91
2022-11-26T21:29:10.291Z,99454.06
2022-11-26T21:31:37.225Z,99448.47
2022-11-26T21:34:06.297Z,99452.00
2022-11-26T21:36:35.079Z,99444.09
2022-11-26T21:39:02.173Z,99445.31
2022-11-26T21:41:29.074Z,99447.50
2022-11-26T21:43:55.695Z,99445.66
2022-11-26T21:46:25.041Z,99444.09
2022-11-26T21:48:52.964Z,99447.53
2022-11-26T21:51:20.623Z,99442.88
2022-11-26T21:53:49.580Z,99441.66
2022-11-26T21:56:24.708Z,99444.31
2022-11-26T21:58:51.557Z,99433.88
2022-11-26T22:01:27.132Z,99433.03
2022-11-26T22:03:56.390Z,99421.97
2022-11-26T22:06:23.970Z,99428.91
2022-11-26T22:08:51.245Z,99426.38
2022-11-26T22:11:24.265Z,99432.91
2022-11-26T22:13:51.431Z,99432.91
2022-11-26T22:16:19.974Z,99429.00
2022-11-26T22:18:47.714Z,99426.00
2022-11-26T22:21:21.513Z,99421.97
2022-11-26T22:23:49.421Z,99419.06
2022-11-26T22:26:16.332Z,99429.88
2022-11-26T22:28:43.128Z,99420.03
2022-11-26T22:31:19.633Z,99405.69
2022-11-26T22:33:46.968Z,99423.09
2022-11-26T22:36:13.996Z,99412.38
2022-11-26T22:38:41.979Z,99415.66
2022-11-26T22:41:10.578Z,99412.88
2022-11-26T22:43:37.645Z,99416.00
2022-11-26T22:46:09.795Z,99415.66
2022-11-26T22:48:36.619Z,99407.38
2022-11-26T22:51:03.780Z,99409.13
2022-11-26T22:53:31.432Z,99412.13
2022-11-26T22:55:59.862Z,99410.31
2022-11-26T22:58:28.250Z,99407.16
2022-11-26T23:00:57.389Z,99410.19
2022-11-26T23:03:25.398Z,99406.91
2022-11-26T23:05:52.781Z,99410.56
2022-11-26T23:08:20.724Z,99407.03
2022-11-26T23:10:48.532Z,99400.72
2022-11-26T23:13:16.083Z,99402.53
2022-11-26T23:15:45.061Z,99406.66
2022-11-26T23:18:13.870Z,99405.81
2022-11-26T23:20:40.847Z,99410.56
2022-11-26T23:23:07.455Z,99406.91
2022-11-26T23:25:37.983Z,99407.78
2022-11-26T23:28:04.747Z,99411.66
2022-11-26T23:30:31.309Z,99412.72
2022-11-26T23:32:57.958Z,99416.03
2022-11-26T23:35:24.574Z,99418.78
2022-11-26T23:37:51.139Z,99415.50
2022-11-26T23:40:17.831Z,99413.47
2022-11-26T23:42:44.484Z,99413.34
2022-11-26T23:45:11.209Z,99417.09
2022-11-26T23:47:39.837Z,99423.53
2022-11-26T23:50:07.246Z,99418.06
2022-11-26T23:52:34.805Z,99418.31
2022-11-26T23:55:01.649Z,99415.63
2022-11-26T23:57:28.356Z,99416.09
2022-11-26T23:59:54.945Z,99421.91
